sensor_id;sensor_type;location;lat;lon;timestamp;pressure;altitude;pressure_sealevel;temperature;humidity
78383;BME280;67668;52.294;4.692;2023-04-07T00:02:57;101551.84;;;9.58;79.35
78383;BME280;67668;52.294;4.692;2023-04-07T00:05:23;101546.56;;;9.58;79.47
78383;BME280;67668;52.294;4.692;2023-04-07T00:07:48;101557.94;;;9.58;79.08
78383;BME280;67668;52.294;4.692;2023-04-07T00:10:14;101551.72;;;9.59;79.22
78383;BME280;67668;52.294;4.692;2023-04-07T00:12:39;101557.13;;;9.58;79.12
78383;BME280;67668;52.294;4.692;2023-04-07T00:15:05;101556.28;;;9.57;79.01
78383;BME280;67668;52.294;4.692;2023-04-07T00:17:31;101569.50;;;9.57;79.01
78383;BME280;67668;52.294;4.692;2023-04-07T00:19:56;101561.56;;;9.57;78.98
78383;BME280;67668;52.294;4.692;2023-04-07T00:22:21;101568.50;;;9.58;78.66
78383;BME280;67668;52.294;4.692;2023-04-07T00:24:47;101571.16;;;9.58;78.89
78383;BME280;67668;52.294;4.692;2023-04-07T00:27:12;101573.81;;;9.58;78.79
78383;BME280;67668;52.294;4.692;2023-04-07T00:29:38;101574.78;;;9.57;79.07
78383;BME280;67668;52.294;4.692;2023-04-07T00:32:03;101568.66;;;9.57;79.08
78383;BME280;67668;52.294;4.692;2023-04-07T00:34:28;101567.81;;;9.56;79.04
78383;BME280;67668;52.294;4.692;2023-04-07T00:36:54;101567.81;;;9.56;78.70
78383;BME280;67668;52.294;4.692;2023-04-07T00:39:19;101570.44;;;9.56;78.64
78383;BME280;67668;52.294;4.692;2023-04-07T00:41:46;101568.66;;;9.57;78.65
78383;BME280;67668;52.294;4.692;2023-04-07T00:44:12;101564.31;;;9.56;78.65
78383;BME280;67668;52.294;4.692;2023-04-07T00:46:38;101572.13;;;9.57;78.92
78383;BME280;67668;52.294;4.692;2023-04-07T00:49:03;101570.34;;;9.58;78.49
78383;BME280;67668;52.294;4.692;2023-04-07T00:51:29;101569.50;;;9.57;78.47
78383;BME280;67668;52.294;4.692;2023-04-07T00:53:55;101563.22;;;9.58;78.52
78383;BME280;67668;52.294;4.692;2023-04-07T00:56:21;101566.00;;;9.57;78.65
78383;BME280;67668;52.294;4.692;2023-04-07T00:58:46;101564.31;;;9.56;78.68
78383;BME280;67668;52.294;4.692;2023-04-07T01:01:12;101559.88;;;9.56;78.67
78383;BME280;67668;52.294;4.692;2023-04-07T01:03:46;101570.44;;;9.56;78.97
78383;BME280;67668;52.294;4.692;2023-04-07T01:06:15;101572.25;;;9.56;78.41
78383;BME280;67668;52.294;4.692;2023-04-07T01:08:49;101573.09;;;9.56;78.92
78383;BME280;67668;52.294;4.692;2023-04-07T01:11:23;101570.44;;;9.56;78.64
78383;BME280;67668;52.294;4.692;2023-04-07T01:13:50;101572.13;;;9.57;78.78
78383;BME280;67668;52.294;4.692;2023-04-07T01:16:23;101573.94;;;9.57;78.44
78383;BME280;67668;52.294;4.692;2023-04-07T01:18:53;101579.94;;;9.59;78.86
78383;BME280;67668;52.294;4.692;2023-04-07T01:21:21;101575.63;;;9.58;78.55
78383;BME280;67668;52.294;4.692;2023-04-07T01:24:19;101575.50;;;9.59;78.51
78383;BME280;67668;52.294;4.692;2023-04-07T01:26:51;101579.94;;;9.59;78.75
78383;BME280;67668;52.294;4.692;2023-04-07T01:29:36;101583.41;;;9.59;78.34
78383;BME280;67668;52.294;4.692;2023-04-07T01:32:08;101575.50;;;9.59;78.34
78383;BME280;67668;52.294;4.692;2023-04-07T01:34:37;101580.53;;;9.62;78.59
78383;BME280;67668;52.294;4.692;2023-04-07T01:37:03;101575.50;;;9.59;78.38
78383;BME280;67668;52.294;4.692;2023-04-07T01:39:30;101576.44;;;9.58;78.57
78383;BME280;67668;52.294;4.692;2023-04-07T01:41:56;101578.13;;;9.59;78.92
78383;BME280;67668;52.294;4.692;2023-04-07T01:44:23;101584.38;;;9.58;78.68
78383;BME280;67668;52.294;4.692;2023-04-07T01:46:50;101585.34;;;9.57;78.81
78383;BME280;67668;52.294;4.692;2023-04-07T01:49:15;101580.06;;;9.57;79.07
78383;BME280;67668;52.294;4.692;2023-04-07T01:51:43;101573.19;;;9.55;78.81
78383;BME280;67668;52.294;4.692;2023-04-07T01:54:09;101573.81;;;9.58;78.87
78383;BME280;67668;52.294;4.692;2023-04-07T01:56:34;101575.72;;;9.56;78.77
78383;BME280;67668;52.294;4.692;2023-04-07T01:59:00;101575.72;;;9.56;78.92
78383;BME280;67668;52.294;4.692;2023-04-07T02:01:25;101573.19;;;9.55;78.48
78383;BME280;67668;52.294;4.692;2023-04-07T02:06:31;101580.16;;;9.56;78.57
78383;BME280;67668;52.294;4.692;2023-04-07T02:09:03;101586.53;;;9.53;78.50
78383;BME280;67668;52.294;4.692;2023-04-07T02:11:31;101581.25;;;9.53;78.37
78383;BME280;67668;52.294;4.692;2023-04-07T02:13:59;101579.56;;;9.52;78.83
78383;BME280;67668;52.294;4.692;2023-04-07T02:16:28;101585.78;;;9.51;78.73
78383;BME280;67668;52.294;4.692;2023-04-07T02:18:55;101590.13;;;9.52;79.12
78383;BME280;67668;52.294;4.692;2023-04-07T02:21:21;101586.53;;;9.53;78.59
78383;BME280;67668;52.294;4.692;2023-04-07T02:23:47;101581.25;;;9.53;78.58
78383;BME280;67668;52.294;4.692;2023-04-07T02:26:12;101582.94;;;9.54;78.98
78383;BME280;67668;52.294;4.692;2023-04-07T02:28:37;101589.19;;;9.53;78.83
78383;BME280;67668;52.294;4.692;2023-04-07T02:31:03;101590.88;;;9.54;78.83
78383;BME280;67668;52.294;4.692;2023-04-07T02:33:28;101590.97;;;9.53;78.68
78383;BME280;67668;52.294;4.692;2023-04-07T02:35:53;101591.06;;;9.51;78.98
78383;BME280;67668;52.294;4.692;2023-04-07T02:38:19;101592.78;;;9.52;78.70
78383;BME280;67668;52.294;4.692;2023-04-07T02:40:44;101590.13;;;9.52;78.81
78383;BME280;67668;52.294;4.692;2023-04-07T02:43:09;101592.06;;;9.50;78.89
78383;BME280;67668;52.294;4.692;2023-04-07T02:45:35;101589.41;;;9.50;78.63
78383;BME280;67668;52.294;4.692;2023-04-07T02:48:00;101583.28;;;9.50;79.20
78383;BME280;67668;52.294;4.692;2023-04-07T02:50:25;101589.66;;;9.47;79.24
78383;BME280;67668;52.294;4.692;2023-04-07T02:52:51;101594.94;;;9.47;79.13
78383;BME280;67668;52.294;4.692;2023-04-07T02:55:16;101599.38;;;9.47;78.97
78383;BME280;67668;52.294;4.692;2023-04-07T02:57:42;101595.88;;;9.46;78.82
78383;BME280;67668;52.294;4.692;2023-04-07T03:00:08;101597.56;;;9.47;79.52
78383;BME280;67668;52.294;4.692;2023-04-07T03:02:34;101596.59;;;9.48;79.27
78383;BME280;67668;52.294;4.692;2023-04-07T03:04:59;101597.56;;;9.47;79.55
78383;BME280;67668;52.294;4.692;2023-04-07T03:07:25;101597.44;;;9.49;79.20
78383;BME280;67668;52.294;4.692;2023-04-07T03:09:50;101610.66;;;9.49;79.24
78383;BME280;67668;52.294;4.692;2023-04-07T03:12:15;101592.28;;;9.47;79.03
78383;BME280;67668;52.294;4.692;2023-04-07T03:14:41;101598.41;;;9.48;79.09
78383;BME280;67668;52.294;4.692;2023-04-07T03:17:06;101597.56;;;9.47;78.88
78383;BME280;67668;52.294;4.692;2023-04-07T03:19:31;101596.72;;;9.47;79.31
78383;BME280;67668;52.294;4.692;2023-04-07T03:21:57;101604.66;;;9.47;79.24
78383;BME280;67668;52.294;4.692;2023-04-07T03:24:22;101603.72;;;9.48;78.73
78383;BME280;67668;52.294;4.692;2023-04-07T03:26:47;101596.72;;;9.47;78.93
78383;BME280;67668;52.294;4.692;2023-04-07T03:29:13;101605.50;;;9.47;78.62
78383;BME280;67668;52.294;4.692;2023-04-07T03:31:38;101600.22;;;9.47;79.04
78383;BME280;67668;52.294;4.692;2023-04-07T03:34:04;101596.84;;;9.45;78.48
78383;BME280;67668;52.294;4.692;2023-04-07T03:36:29;101590.59;;;9.46;78.69
78383;BME280;67668;52.294;4.692;2023-04-07T03:38:56;101590.59;;;9.46;78.69
78383;BME280;67668;52.294;4.692;2023-04-07T03:41:21;101588.91;;;9.45;78.68
78383;BME280;67668;52.294;4.692;2023-04-07T03:43:47;101594.19;;;9.45;79.07
78383;BME280;67668;52.294;4.692;2023-04-07T03:46:12;101585.53;;;9.43;78.77
78383;BME280;67668;52.294;4.692;2023-04-07T03:48:38;101590.84;;;9.43;79.04
78383;BME280;67668;52.294;4.692;2023-04-07T03:51:05;101584.69;;;9.43;78.86
78383;BME280;67668;52.294;4.692;2023-04-07T03:53:30;101588.91;;;9.45;78.77
78383;BME280;67668;52.294;4.692;2023-04-07T03:55:56;101595.16;;;9.44;79.03
78383;BME280;67668;52.294;4.692;2023-04-07T03:58:21;101591.69;;;9.44;79.12
78383;BME280;67668;52.294;4.692;2023-04-07T04:00:47;101602.25;;;9.44;78.63
78383;BME280;67668;52.294;4.692;2023-04-07T04:03:12;101602.25;;;9.44;78.87
78383;BME280;67668;52.294;4.692;2023-04-07T04:05:37;101609.19;;;9.45;78.79
78383;BME280;67668;52.294;4.692;2023-04-07T04:08:03;101610.88;;;9.46;78.49
78383;BME280;67668;52.294;4.692;2023-04-07T04:10:28;101611.03;;;9.44;78.84
78383;BME280;67668;52.294;4.692;2023-04-07T04:12:54;101616.31;;;9.44;79.04
78383;BME280;67668;52.294;4.692;2023-04-07T04:15:19;101617.25;;;9.43;78.71
78383;BME280;67668;52.294;4.692;2023-04-07T04:17:45;101621.59;;;9.44;78.97
78383;BME280;67668;52.294;4.692;2023-04-07T04:20:10;101615.47;;;9.44;78.92
78383;BME280;67668;52.294;4.692;2023-04-07T04:22:35;101622.41;;;9.45;78.70
78383;BME280;67668;52.294;4.692;2023-04-07T04:25:01;101632.16;;;9.44;78.34
78383;BME280;67668;52.294;4.692;2023-04-07T04:27:27;101622.53;;;9.43;78.53
78383;BME280;67668;52.294;4.692;2023-04-07T04:29:52;101627.81;;;9.43;78.79
78383;BME280;67668;52.294;4.692;2023-04-07T04:32:18;101630.31;;;9.45;78.54
78383;BME280;67668;52.294;4.692;2023-04-07T04:34:43;101630.22;;;9.46;78.32
78383;BME280;67668;52.294;4.692;2023-04-07T04:37:09;101626.03;;;9.44;78.35
78383;BME280;67668;52.294;4.692;2023-04-07T04:39:35;101628.66;;;9.44;78.71
78383;BME280;67668;52.294;4.692;2023-04-07T04:42:01;101626.13;;;9.42;78.30
78383;BME280;67668;52.294;4.692;2023-04-07T04:44:28;101634.91;;;9.43;78.14
78383;BME280;67668;52.294;4.692;2023-04-07T04:46:54;101623.63;;;9.41;78.19
78383;BME280;67668;52.294;4.692;2023-04-07T04:49:19;101624.47;;;9.41;78.32
78383;BME280;67668;52.294;4.692;2023-04-07T04:51:45;101629.75;;;9.41;78.08
78383;BME280;67668;52.294;4.692;2023-04-07T04:54:10;101628.06;;;9.40;77.82
78383;BME280;67668;52.294;4.692;2023-04-07T04:56:35;101636.69;;;9.42;77.97
78383;BME280;67668;52.294;4.692;2023-04-07T04:59:02;101641.97;;;9.42;77.99
78383;BME280;67668;52.294;4.692;2023-04-07T05:01:28;101636.69;;;9.42;78.45
78383;BME280;67668;52.294;4.692;2023-04-07T05:03:53;101642.97;;;9.41;78.10
78383;BME280;67668;52.294;4.692;2023-04-07T05:06:18;101643.78;;;9.42;78.07
78383;BME280;67668;52.294;4.692;2023-04-07T05:08:44;101648.97;;;9.43;78.36
78383;BME280;67668;52.294;4.692;2023-04-07T05:11:10;101638.50;;;9.42;77.98
78383;BME280;67668;52.294;4.692;2023-04-07T05:13:35;101650.75;;;9.43;78.29
78383;BME280;67668;52.294;4.692;2023-04-07T05:16:01;101659.53;;;9.43;78.24
78383;BME280;67668;52.294;4.692;2023-04-07T05:18:26;101663.88;;;9.44;78.07
78383;BME280;67668;52.294;4.692;2023-04-07T05:20:51;101653.41;;;9.43;78.03
78383;BME280;67668;52.294;4.692;2023-04-07T05:23:17;101657.84;;;9.42;77.83
78383;BME280;67668;52.294;4.692;2023-04-07T05:25:42;101657.84;;;9.42;77.92
78383;BME280;67668;52.294;4.692;2023-04-07T05:28:08;101662.03;;;9.45;78.13
78383;BME280;67668;52.294;4.692;2023-04-07T05:30:33;101663.00;;;9.44;78.02
78383;BME280;67668;52.294;4.692;2023-04-07T05:32:58;101662.88;;;9.45;77.41
78383;BME280;67668;52.294;4.692;2023-04-07T05:35:24;101661.22;;;9.44;77.73
78383;BME280;67668;52.294;4.692;2023-04-07T05:37:49;101662.03;;;9.45;77.87
78383;BME280;67668;52.294;4.692;2023-04-07T05:40:14;101663.00;;;9.44;77.68
78383;BME280;67668;52.294;4.692;2023-04-07T05:42:40;101665.66;;;9.44;77.89
78383;BME280;67668;52.294;4.692;2023-04-07T05:45:06;101668.28;;;9.44;77.94
78383;BME280;67668;52.294;4.692;2023-04-07T05:47:32;101669.25;;;9.43;77.66
78383;BME280;67668;52.294;4.692;2023-04-07T05:49:58;101665.66;;;9.44;78.05
78383;BME280;67668;52.294;4.692;2023-04-07T05:52:23;101669.16;;;9.44;78.30
78383;BME280;67668;52.294;4.692;2023-04-07T05:54:48;101668.16;;;9.45;78.03
78383;BME280;67668;52.294;4.692;2023-04-07T05:57:14;101671.66;;;9.46;77.88
78383;BME280;67668;52.294;4.692;2023-04-07T05:59:39;101671.66;;;9.46;77.63
78383;BME280;67668;52.294;4.692;2023-04-07T06:02:05;101679.72;;;9.44;78.20
78383;BME280;67668;52.294;4.692;2023-04-07T06:04:30;101681.38;;;9.45;78.15
78383;BME280;67668;52.294;4.692;2023-04-07T06:06:56;101684.88;;;9.46;78.36
78383;BME280;67668;52.294;4.692;2023-04-07T06:09:22;101690.06;;;9.47;78.21
78383;BME280;67668;52.294;4.692;2023-04-07T06:11:47;101689.31;;;9.45;78.17
78383;BME280;67668;52.294;4.692;2023-04-07T06:14:13;101691.94;;;9.45;78.28
78383;BME280;67668;52.294;4.692;2023-04-07T06:16:38;101693.88;;;9.43;78.04
78383;BME280;67668;52.294;4.692;2023-04-07T06:19:03;101700.00;;;9.44;78.13
78383;BME280;67668;52.294;4.692;2023-04-07T06:21:29;101700.00;;;9.44;78.29
78383;BME280;67668;52.294;4.692;2023-04-07T06:23:55;101703.50;;;9.44;78.52
78383;BME280;67668;52.294;4.692;2023-04-07T06:26:20;101707.81;;;9.45;78.56
78383;BME280;67668;52.294;4.692;2023-04-07T06:28:47;101703.25;;;9.47;78.25
78383;BME280;67668;52.294;4.692;2023-04-07T06:31:12;101713.84;;;9.47;78.33
78383;BME280;67668;52.294;4.692;2023-04-07T06:33:38;101716.34;;;9.49;78.65
78383;BME280;67668;52.294;4.692;2023-04-07T06:36:04;101710.22;;;9.48;78.81
78383;BME280;67668;52.294;4.692;2023-04-07T06:38:30;101717.19;;;9.49;77.98
78383;BME280;67668;52.294;4.692;2023-04-07T06:40:55;101717.19;;;9.49;78.38
78383;BME280;67668;52.294;4.692;2023-04-07T06:43:23;101718.88;;;9.50;78.33
78383;BME280;67668;52.294;4.692;2023-04-07T06:45:48;101723.09;;;9.53;78.03
78383;BME280;67668;52.294;4.692;2023-04-07T06:48:13;101723.94;;;9.53;77.82
78383;BME280;67668;52.294;4.692;2023-04-07T06:50:39;101726.47;;;9.55;77.95
78383;BME280;67668;52.294;4.692;2023-04-07T06:53:04;101728.16;;;9.56;77.70
78383;BME280;67668;52.294;4.692;2023-04-07T06:55:30;101734.28;;;9.56;77.23
78383;BME280;67668;52.294;4.692;2023-04-07T06:57:55;101734.50;;;9.53;77.63
78383;BME280;67668;52.294;4.692;2023-04-07T07:00:20;101731.75;;;9.55;77.76
78383;BME280;67668;52.294;4.692;2023-04-07T07:02:48;101737.16;;;9.53;77.72
78383;BME280;67668;52.294;4.692;2023-04-07T07:05:13;101738.84;;;9.54;77.49
78383;BME280;67668;52.294;4.692;2023-04-07T07:07:38;101735.22;;;9.55;77.51
78383;BME280;67668;52.294;4.692;2023-04-07T07:10:05;101741.50;;;9.54;77.69
78383;BME280;67668;52.294;4.692;2023-04-07T07:12:30;101738.00;;;9.54;77.31
78383;BME280;67668;52.294;4.692;2023-04-07T07:14:57;101740.66;;;9.54;77.19
78383;BME280;67668;52.294;4.692;2023-04-07T07:17:22;101744.13;;;9.54;77.59
78383;BME280;67668;52.294;4.692;2023-04-07T07:19:48;101743.16;;;9.55;77.36
78383;BME280;67668;52.294;4.692;2023-04-07T07:22:13;101743.06;;;9.57;77.26
78383;BME280;67668;52.294;4.692;2023-04-07T07:24:38;101744.63;;;9.59;76.66
78383;BME280;67668;52.294;4.692;2023-04-07T07:27:04;101746.31;;;9.60;76.90
78383;BME280;67668;52.294;4.692;2023-04-07T07:29:29;101744.53;;;9.61;76.88
78383;BME280;67668;52.294;4.692;2023-04-07T07:31:55;101757.63;;;9.62;77.07
78383;BME280;67668;52.294;4.692;2023-04-07T07:34:20;101754.97;;;9.62;76.55
78383;BME280;67668;52.294;4.692;2023-04-07T07:36:46;101757.75;;;9.61;76.62
78383;BME280;67668;52.294;4.692;2023-04-07T07:39:11;101765.53;;;9.62;76.73
78383;BME280;67668;52.294;4.692;2023-04-07T07:41:38;101772.53;;;9.63;76.95
78383;BME280;67668;52.294;4.692;2023-04-07T07:44:03;101763.66;;;9.64;76.79
78383;BME280;67668;52.294;4.692;2023-04-07T07:46:29;101770.72;;;9.64;76.67
78383;BME280;67668;52.294;4.692;2023-04-07T07:48:54;101767.25;;;9.63;76.90
78383;BME280;67668;52.294;4.692;2023-04-07T07:51:20;101767.25;;;9.63;77.38
78383;BME280;67668;52.294;4.692;2023-04-07T07:53:46;101770.72;;;9.64;76.99
78383;BME280;67668;52.294;4.692;2023-04-07T07:56:12;101774.94;;;9.66;76.70
78383;BME280;67668;52.294;4.692;2023-04-07T07:58:37;101782.88;;;9.66;76.86
78383;BME280;67668;52.294;4.692;2023-04-07T08:01:02;101778.19;;;9.70;77.03
78383;BME280;67668;52.294;4.692;2023-04-07T08:03:28;101777.25;;;9.71;76.71
78383;BME280;67668;52.294;4.692;2023-04-07T08:05:53;101780.72;;;9.71;77.00
78383;BME280;67668;52.294;4.692;2023-04-07T08:08:18;101788.53;;;9.73;77.50
78383;BME280;67668;52.294;4.692;2023-04-07T08:10:44;101792.88;;;9.74;77.30
78383;BME280;67668;52.294;4.692;2023-04-07T08:13:09;101798.03;;;9.75;76.84
78383;BME280;67668;52.294;4.692;2023-04-07T08:15:34;101794.47;;;9.76;76.87
78383;BME280;67668;52.294;4.692;2023-04-07T08:18:00;101796.25;;;9.76;76.40
78383;BME280;67668;52.294;4.692;2023-04-07T08:20:29;101790.00;;;9.77;76.36
78383;BME280;67668;52.294;4.692;2023-04-07T08:22:54;101793.38;;;9.79;76.30
78383;BME280;67668;52.294;4.692;2023-04-07T08:25:20;101803.00;;;9.80;76.58
78383;BME280;67668;52.294;4.692;2023-04-07T08:27:45;101803.00;;;9.80;76.63
78383;BME280;67668;52.294;4.692;2023-04-07T08:30:10;101811.56;;;9.83;76.03
78383;BME280;67668;52.294;4.692;2023-04-07T08:32:39;101804.47;;;9.84;76.61
78383;BME280;67668;52.294;4.692;2023-04-07T08:35:05;101813.13;;;9.86;76.39
78383;BME280;67668;52.294;4.692;2023-04-07T08:37:32;101800.63;;;9.88;76.41
78383;BME280;67668;52.294;4.692;2023-04-07T08:39:58;101803.16;;;9.90;76.09
78383;BME280;67668;52.294;4.692;2023-04-07T08:42:26;101815.22;;;9.94;75.91
78383;BME280;67668;52.294;4.692;2023-04-07T08:44:54;101814.22;;;9.95;76.15
78383;BME280;67668;52.294;4.692;2023-04-07T08:47:21;101815.94;;;9.96;75.70
78383;BME280;67668;52.294;4.692;2023-04-07T08:49:49;101816.63;;;9.98;76.35
78383;BME280;67668;52.294;4.692;2023-04-07T08:52:17;101819.09;;;10.01;76.38
78383;BME280;67668;52.294;4.692;2023-04-07T08:54:47;101823.41;;;10.02;76.32
78383;BME280;67668;52.294;4.692;2023-04-07T08:57:13;101824.16;;;10.04;75.49
78383;BME280;67668;52.294;4.692;2023-04-07T08:59:41;101819.66;;;10.04;75.02
78383;BME280;67668;52.294;4.692;2023-04-07T09:02:09;101830.06;;;10.07;75.70
78383;BME280;67668;52.294;4.692;2023-04-07T09:04:35;101825.59;;;10.08;75.07
78383;BME280;67668;52.294;4.692;2023-04-07T09:07:01;101840.50;;;10.09;75.21
78383;BME280;67668;52.294;4.692;2023-04-07T09:09:28;101838.47;;;10.12;75.13
78383;BME280;67668;52.294;4.692;2023-04-07T09:11:53;101839.31;;;10.13;75.43
78383;BME280;67668;52.294;4.692;2023-04-07T09:14:20;101838.28;;;10.15;75.85
78383;BME280;67668;52.294;4.692;2023-04-07T09:16:46;101845.25;;;10.16;75.03
78383;BME280;67668;52.294;4.692;2023-04-07T09:19:11;101843.47;;;10.17;75.23
78383;BME280;67668;52.294;4.692;2023-04-07T09:21:48;101844.41;;;10.16;74.97
78383;BME280;67668;52.294;4.692;2023-04-07T09:26:46;101851.16;;;10.20;75.42
78383;BME280;67668;52.294;4.692;2023-04-07T09:29:17;101851.16;;;10.20;75.15
78383;BME280;67668;52.294;4.692;2023-04-07T09:31:49;101844.81;;;10.22;75.23
78383;BME280;67668;52.294;4.692;2023-04-07T09:36:50;101850.00;;;10.24;74.96
78383;BME280;67668;52.294;4.692;2023-04-07T09:39:16;101843.63;;;10.26;74.62
78383;BME280;67668;52.294;4.692;2023-04-07T09:41:42;101846.25;;;10.26;75.29
78383;BME280;67668;52.294;4.692;2023-04-07T09:44:08;101851.44;;;10.28;75.01
78383;BME280;67668;52.294;4.692;2023-04-07T09:46:34;101853.22;;;10.27;75.49
78383;BME280;67668;52.294;4.692;2023-04-07T09:49:01;101853.13;;;10.29;75.09
78383;BME280;67668;52.294;4.692;2023-04-07T09:51:30;101853.03;;;10.30;75.10
78383;BME280;67668;52.294;4.692;2023-04-07T09:53:58;101853.03;;;10.30;74.99
78383;BME280;67668;52.294;4.692;2023-04-07T09:56:23;101858.31;;;10.30;75.19
78383;BME280;67668;52.294;4.692;2023-04-07T09:58:51;101864.41;;;10.31;74.99
78383;BME280;67668;52.294;4.692;2023-04-07T10:01:19;101851.19;;;10.31;75.00
78383;BME280;67668;52.294;4.692;2023-04-07T10:03:45;101857.22;;;10.33;75.02
78383;BME280;67668;52.294;4.692;2023-04-07T10:06:11;101866.03;;;10.33;75.06
78383;BME280;67668;52.294;4.692;2023-04-07T10:08:40;101856.38;;;10.32;74.82
78383;BME280;67668;52.294;4.692;2023-04-07T10:11:07;101860.72;;;10.33;74.53
78383;BME280;67668;52.294;4.692;2023-04-07T10:13:35;101860.59;;;10.35;74.89
78383;BME280;67668;52.294;4.692;2023-04-07T10:16:05;101869.28;;;10.37;74.89
78383;BME280;67668;52.294;4.692;2023-04-07T10:18:34;101863.00;;;10.38;75.16
78383;BME280;67668;52.294;4.692;2023-04-07T10:21:03;101866.41;;;10.40;75.30
78383;BME280;67668;52.294;4.692;2023-04-07T10:23:50;101858.31;;;10.42;74.89
78383;BME280;67668;52.294;4.692;2023-04-07T10:26:22;101874.97;;;10.44;74.68
78383;BME280;67668;52.294;4.692;2023-04-07T10:28:52;101872.19;;;10.45;74.17
78383;BME280;67668;52.294;4.692;2023-04-07T10:31:19;101872.19;;;10.45;73.91
78383;BME280;67668;52.294;4.692;2023-04-07T10:33:48;101873.88;;;10.46;73.82
78383;BME280;67668;52.294;4.692;2023-04-07T10:36:16;101874.72;;;10.47;74.45
78383;BME280;67668;52.294;4.692;2023-04-07T10:41:35;101880.63;;;10.50;74.37
78383;BME280;67668;52.294;4.692;2023-04-07T10:44:05;101879.53;;;10.53;74.25
78383;BME280;67668;52.294;4.692;2023-04-07T10:49:14;101885.44;;;10.56;74.38
78383;BME280;67668;52.294;4.692;2023-04-07T10:51:41;101887.88;;;10.59;74.44
78383;BME280;67668;52.294;4.692;2023-04-07T10:54:16;101889.56;;;10.60;74.78
78383;BME280;67668;52.294;4.692;2023-04-07T10:59:28;101890.28;;;10.62;74.29
78383;BME280;67668;52.294;4.692;2023-04-07T11:04:41;101890.88;;;10.66;74.32
78383;BME280;67668;52.294;4.692;2023-04-07T11:07:08;101896.78;;;10.69;74.64
78383;BME280;67668;52.294;4.692;2023-04-07T11:09:34;101893.19;;;10.70;74.36
78383;BME280;67668;52.294;4.692;2023-04-07T11:11:59;101892.22;;;10.71;74.10
78383;BME280;67668;52.294;4.692;2023-04-07T11:14:29;101893.78;;;10.74;73.99
78383;BME280;67668;52.294;4.692;2023-04-07T11:16:55;101897.41;;;10.73;74.03
78383;BME280;67668;52.294;4.692;2023-04-07T11:19:21;101898.03;;;10.76;74.02
78383;BME280;67668;52.294;4.692;2023-04-07T11:21:46;101905.84;;;10.78;74.08
78383;BME280;67668;52.294;4.692;2023-04-07T11:24:31;101911.88;;;10.80;74.05
78383;BME280;67668;52.294;4.692;2023-04-07T11:26:56;101914.28;;;10.83;74.20
78383;BME280;67668;52.294;4.692;2023-04-07T11:29:32;101914.28;;;10.83;73.56
78383;BME280;67668;52.294;4.692;2023-04-07T11:31:58;101915.75;;;10.87;73.72
78383;BME280;67668;52.294;4.692;2023-04-07T11:34:34;101911.16;;;10.89;74.34
78383;BME280;67668;52.294;4.692;2023-04-07T11:37:25;101920.81;;;10.90;73.85
78383;BME280;67668;52.294;4.692;2023-04-07T11:39:53;101918.88;;;10.92;73.95
78383;BME280;67668;52.294;4.692;2023-04-07T11:42:34;101924.88;;;10.94;74.06
78383;BME280;67668;52.294;4.692;2023-04-07T11:45:00;101922.13;;;10.96;73.69
78383;BME280;67668;52.294;4.692;2023-04-07T11:47:36;101916.94;;;10.94;73.75
78383;BME280;67668;52.294;4.692;2023-04-07T11:50:02;101928.28;;;10.96;73.70
78383;BME280;67668;52.294;4.692;2023-04-07T11:52:28;101923.81;;;10.97;73.79
78383;BME280;67668;52.294;4.692;2023-04-07T11:54:53;101921.91;;;10.99;73.75
78383;BME280;67668;52.294;4.692;2023-04-07T11:57:28;101922.75;;;10.99;73.74
78383;BME280;67668;52.294;4.692;2023-04-07T12:00:10;101933.19;;;11.01;73.57
78383;BME280;67668;52.294;4.692;2023-04-07T12:02:36;101930.56;;;11.01;74.12
78383;BME280;67668;52.294;4.692;2023-04-07T12:05:02;101941.03;;;11.02;74.45
78383;BME280;67668;52.294;4.692;2023-04-07T12:07:28;101937.31;;;11.05;74.59
78383;BME280;67668;52.294;4.692;2023-04-07T12:09:54;101944.31;;;11.06;73.65
78383;BME280;67668;52.294;4.692;2023-04-07T12:12:26;101940.81;;;11.05;73.66
78383;BME280;67668;52.294;4.692;2023-04-07T12:14:53;101943.47;;;11.05;73.71
78383;BME280;67668;52.294;4.692;2023-04-07T12:17:22;101948.75;;;11.05;73.82
78383;BME280;67668;52.294;4.692;2023-04-07T12:19:47;101952.25;;;11.06;73.84
78383;BME280;67668;52.294;4.692;2023-04-07T12:22:13;101952.25;;;11.06;73.68
78383;BME280;67668;52.294;4.692;2023-04-07T12:24:38;101960.06;;;11.07;73.95
78383;BME280;67668;52.294;4.692;2023-04-07T12:27:03;101955.63;;;11.08;73.77
78383;BME280;67668;52.294;4.692;2023-04-07T12:29:29;101967.06;;;11.08;74.06
78383;BME280;67668;52.294;4.692;2023-04-07T12:31:55;101958.25;;;11.08;74.08
78383;BME280;67668;52.294;4.692;2023-04-07T12:34:20;101953.94;;;11.07;74.28
78383;BME280;67668;52.294;4.692;2023-04-07T12:36:46;101956.59;;;11.07;74.30
78383;BME280;67668;52.294;4.692;2023-04-07T12:39:11;101963.56;;;11.08;74.62
78383;BME280;67668;52.294;4.692;2023-04-07T12:41:36;101969.63;;;11.10;74.04
78383;BME280;67668;52.294;4.692;2023-04-07T12:44:03;101969.63;;;11.10;74.43
78383;BME280;67668;52.294;4.692;2023-04-07T12:46:28;101966.97;;;11.10;74.47
78383;BME280;67668;52.294;4.692;2023-04-07T12:48:53;101965.13;;;11.10;74.78
78383;BME280;67668;52.294;4.692;2023-04-07T12:51:19;101964.06;;;11.13;74.42
78383;BME280;67668;52.294;4.692;2023-04-07T12:53:44;101968.38;;;11.14;74.22
78383;BME280;67668;52.294;4.692;2023-04-07T12:56:11;101973.59;;;11.15;74.76
78383;BME280;67668;52.294;4.692;2023-04-07T12:58:38;101977.09;;;11.16;73.92
78383;BME280;67668;52.294;4.692;2023-04-07T13:01:03;101970.84;;;11.17;73.95
78383;BME280;67668;52.294;4.692;2023-04-07T13:03:29;101972.50;;;11.18;74.07
78383;BME280;67668;52.294;4.692;2023-04-07T13:05:54;101977.69;;;11.19;73.94
78383;BME280;67668;52.294;4.692;2023-04-07T13:08:20;101973.09;;;11.21;73.93
78383;BME280;67668;52.294;4.692;2023-04-07T13:10:45;101977.31;;;11.24;74.04
78383;BME280;67668;52.294;4.692;2023-04-07T13:13:11;101980.72;;;11.26;73.52
78383;BME280;67668;52.294;4.692;2023-04-07T13:15:36;101985.88;;;11.27;73.83